Time;durP1;ratioP1;P1;durP2;ratioP2;P2;SDS_P1;SDS_P2;PMS_P1;PMS_P2;Temp;Humidity;BMP_temperature;BMP_pressure;BME280_temperature;BME280_humidity;BME280_pressure;Samples;Min_cycle;Max_cycle;Signal;HPM_P1;HPM_P2
2022/10/03 00:00:42;;;;;;;14.23;3.20;;;11.80;1.00;;;;;;6110404;23;21115;-80
2022/10/03 00:03:33;;;;;;;18.87;4.40;;;11.80;1.00;;;;;;6114165;23;20429;-81
2022/10/03 00:06:14;;;;;;;18.73;3.60;;;11.70;1.00;;;;;;6089049;23;20409;-81
2022/10/03 00:09:23;;;;;;;19.53;3.90;;;11.80;1.00;;;;;;6115421;23;20641;-81
2022/10/03 00:12:10;;;;;;;13.00;3.73;;;11.80;1.00;;;;;;6115720;23;20444;-82
2022/10/03 00:14:53;;;;;;;18.50;3.40;;;11.90;1.00;;;;;;6112325;23;20393;-82
2022/10/03 00:17:30;;;;;;;18.33;4.53;;;11.90;1.00;;;;;;6112812;23;20507;-81
2022/10/03 00:20:09;;;;;;;14.80;3.10;;;11.90;1.00;;;;;;6113479;23;20436;-82
2022/10/03 00:22:46;;;;;;;24.03;5.43;;;12.00;1.00;;;;;;6112904;23;20456;-81
2022/10/03 00:25:31;;;;;;;19.17;4.47;;;12.00;1.00;;;;;;6116892;23;21203;-82
2022/10/03 00:28:19;;;;;;;15.93;3.93;;;12.00;1.00;;;;;;6113968;23;20460;-81
2022/10/03 00:31:08;;;;;;;20.00;4.13;;;12.00;1.00;;;;;;6110375;23;20443;-82
2022/10/03 00:33:50;;;;;;;19.37;5.40;;;12.00;1.00;;;;;;6113627;23;20421;-81
2022/10/03 00:36:30;;;;;;;19.80;4.30;;;12.00;1.00;;;;;;6113604;23;20472;-81
2022/10/03 00:39:42;;;;;;;15.00;3.80;;;12.00;1.00;;;;;;6113326;23;20590;-82
2022/10/03 00:42:52;;;;;;;23.77;4.33;;;12.00;1.00;;;;;;6113353;23;20617;-82
2022/10/03 00:45:56;;;;;;;18.73;3.67;;;12.00;1.00;;;;;;6095443;23;20436;-82
2022/10/03 00:49:20;;;;;;;15.00;4.10;;;12.10;1.00;;;;;;6111917;23;20431;-81
2022/10/03 00:52:00;;;;;;;16.50;3.70;;;12.10;1.00;;;;;;5967098;24;20423;-81
2022/10/03 00:55:00;;;;;;;14.43;4.20;;;12.00;1.00;;;;;;6091859;23;20412;-80
2022/10/03 00:58:03;;;;;;;17.60;4.20;;;12.00;1.00;;;;;;6082386;23;20422;-81
2022/10/03 01:00:32;;;;;;;16.97;3.77;;;11.90;1.00;;;;;;6105583;23;20424;-81
2022/10/03 01:03:33;;;;;;;14.00;3.53;;;11.90;1.00;;;;;;6104450;23;20417;-82
2022/10/03 01:06:21;;;;;;;19.20;5.00;;;11.90;1.00;;;;;;6086519;23;21318;-81
2022/10/03 01:09:13;;;;;;;14.93;3.40;;;11.90;1.00;;;;;;6096996;23;20413;-80
2022/10/03 01:12:04;;;;;;;20.03;4.07;;;11.90;1.00;;;;;;6109677;23;20406;-82
2022/10/03 01:14:53;;;;;;;19.33;6.00;;;11.90;1.00;;;;;;6099876;23;20460;-78
2022/10/03 01:17:46;;;;;;;19.20;4.07;;;11.80;1.00;;;;;;6102092;23;20440;-79
2022/10/03 01:20:42;;;;;;;14.13;4.17;;;11.90;1.00;;;;;;6113211;23;20476;-82
2022/10/03 01:23:51;;;;;;;15.80;3.90;;;11.80;1.00;;;;;;6115395;23;20409;-79
2022/10/03 01:26:54;;;;;;;13.90;4.00;;;11.90;1.00;;;;;;6025713;23;20402;-79
2022/10/03 01:32:51;;;;;;;16.03;3.57;;;12.00;1.00;;;;;;6112057;23;20419;-82
2022/10/03 01:35:40;;;;;;;15.43;4.80;;;12.00;1.00;;;;;;6112676;23;20392;-81
2022/10/03 01:41:12;;;;;;;15.30;3.90;;;12.00;1.00;;;;;;6115233;23;20435;-80
2022/10/03 01:43:54;;;;;;;15.50;3.63;;;12.00;1.00;;;;;;6114306;23;20421;-80
2022/10/03 01:46:42;;;;;;;15.60;3.70;;;12.10;1.00;;;;;;6117585;23;20504;-79
2022/10/03 01:49:27;;;;;;;21.03;3.77;;;12.10;1.00;;;;;;6083342;23;20456;-78
2022/10/03 01:52:01;;;;;;;18.83;4.40;;;12.10;1.00;;;;;;6110897;23;21009;-79
2022/10/03 01:54:44;;;;;;;16.07;3.93;;;12.10;1.00;;;;;;6110313;23;21036;-80
2022/10/03 01:57:20;;;;;;;18.57;3.70;;;12.10;1.00;;;;;;6081691;23;20589;-79
2022/10/03 01:59:54;;;;;;;16.13;3.67;;;12.10;1.00;;;;;;6096216;23;20424;-80
2022/10/03 02:02:33;;;;;;;15.80;4.20;;;12.10;1.00;;;;;;6107570;23;20437;-78
2022/10/03 02:05:11;;;;;;;14.80;3.90;;;12.00;1.00;;;;;;6107365;23;21260;-80
2022/10/03 02:07:45;;;;;;;13.03;3.57;;;11.90;1.00;;;;;;6107076;23;20400;-78
2022/10/03 02:10:26;;;;;;;17.30;4.37;;;11.90;1.00;;;;;;6108111;23;20456;-78
2022/10/03 02:13:08;;;;;;;17.00;4.03;;;11.90;1.00;;;;;;6107697;23;20448;-81
2022/10/03 02:15:47;;;;;;;16.63;3.93;;;12.00;1.00;;;;;;6107969;23;20495;-81
2022/10/03 02:18:28;;;;;;;16.20;3.20;;;12.00;1.00;;;;;;6111585;23;20422;-79
2022/10/03 02:21:09;;;;;;;13.07;3.57;;;12.10;1.00;;;;;;6074119;23;20425;-78
2022/10/03 02:23:42;;;;;;;13.77;4.10;;;12.10;1.00;;;;;;6106420;23;20432;-79
2022/10/03 02:26:33;;;;;;;14.93;2.90;;;12.10;1.00;;;;;;6107705;23;20408;-80
2022/10/03 02:29:30;;;;;;;12.27;3.37;;;12.10;1.00;;;;;;6105477;23;20420;-80
2022/10/03 02:32:41;;;;;;;18.03;3.27;;;12.20;1.00;;;;;;6104978;23;20387;-81
2022/10/03 02:35:28;;;;;;;12.47;2.80;;;12.20;1.00;;;;;;6059624;23;20537;-79
2022/10/03 02:38:17;;;;;;;13.33;3.53;;;12.20;1.00;;;;;;6082921;23;20420;-79
2022/10/03 02:41:00;;;;;;;12.57;3.00;;;12.20;1.00;;;;;;6109850;23;20555;-79
2022/10/03 02:44:02;;;;;;;13.37;3.30;;;12.20;1.00;;;;;;6088892;23;20424;-80
2022/10/03 02:47:18;;;;;;;12.10;3.43;;;12.30;1.00;;;;;;6073889;23;20420;-83
2022/10/03 02:50:42;;;;;;;14.20;3.30;;;12.40;1.00;;;;;;6110719;23;20433;-80
2022/10/03 02:53:51;;;;;;;18.60;4.07;;;12.30;1.00;;;;;;5968182;24;20436;-78
2022/10/03 02:56:47;;;;;;;13.03;3.50;;;12.30;1.00;;;;;;5947909;24;20396;-79
2022/10/03 03:00:01;;;;;;;13.73;3.97;;;12.30;1.00;;;;;;6097908;23;20532;-80
2022/10/03 03:03:10;;;;;;;15.33;3.50;;;12.30;1.00;;;;;;6112599;23;20385;-79
2022/10/03 03:06:10;;;;;;;11.90;2.83;;;12.30;1.00;;;;;;6112714;23;20397;-80
2022/10/03 03:09:28;;;;;;;14.97;3.67;;;12.30;1.00;;;;;;6114701;23;20413;-80
2022/10/03 03:12:37;;;;;;;12.00;3.10;;;12.30;1.00;;;;;;6053326;23;20420;-81
2022/10/03 03:16:04;;;;;;;12.23;3.03;;;12.30;1.00;;;;;;6116744;23;20451;-81
2022/10/03 03:18:43;;;;;;;11.90;3.13;;;12.30;1.00;;;;;;6096310;23;20461;-82
2022/10/03 03:21:21;;;;;;;18.70;3.73;;;12.30;1.00;;;;;;6097145;23;20553;-81
2022/10/03 03:24:10;;;;;;;11.17;3.30;;;12.30;1.00;;;;;;6096427;23;20457;-80
2022/10/03 03:27:01;;;;;;;15.20;3.57;;;12.30;1.00;;;;;;6098138;23;20389;-82
2022/10/03 03:29:54;;;;;;;11.33;3.70;;;12.40;1.00;;;;;;6112795;23;20408;-82
2022/10/03 03:32:40;;;;;;;14.00;3.20;;;12.40;1.00;;;;;;6122434;23;20401;-81
2022/10/03 03:35:32;;;;;;;15.83;3.60;;;12.40;1.00;;;;;;6121900;23;20412;-79
2022/10/03 03:38:22;;;;;;;13.17;3.23;;;12.40;1.00;;;;;;6117978;23;20412;-82
2022/10/03 03:41:13;;;;;;;16.77;3.37;;;12.40;1.00;;;;;;6111264;23;20406;-80
2022/10/03 03:44:12;;;;;;;17.13;3.50;;;12.40;1.00;;;;;;6075116;23;20405;-83
2022/10/03 03:47:01;;;;;;;12.67;3.80;;;12.40;1.00;;;;;;6103014;23;20583;-82
2022/10/03 03:49:53;;;;;;;13.10;4.67;;;12.40;1.00;;;;;;6111769;23;20420;-81
2022/10/03 03:52:43;;;;;;;15.60;3.30;;;12.40;1.00;;;;;;6115725;23;20956;-79
2022/10/03 03:55:47;;;;;;;10.97;3.50;;;12.30;1.00;;;;;;6122563;23;20472;-80
2022/10/03 03:58:43;;;;;;;21.30;3.73;;;12.30;1.00;;;;;;6114010;23;20412;-81
2022/10/03 04:01:35;;;;;;;13.00;3.20;;;12.30;1.00;;;;;;6115370;23;20436;-80
2022/10/03 04:04:23;;;;;;;20.07;4.53;;;12.20;1.00;;;;;;6112760;23;20543;-83
2022/10/03 04:07:14;;;;;;;15.03;3.83;;;12.20;1.00;;;;;;6120139;23;20429;-81
2022/10/03 04:12:42;;;;;;;12.57;3.63;;;12.20;1.00;;;;;;6194359;23;20406;-81
2022/10/03 04:15:25;;;;;;;15.57;3.60;;;12.20;1.00;;;;;;6206915;23;20407;-80
2022/10/03 04:21:40;;;;;;;9.37;2.73;;;12.20;1.00;;;;;;6137624;23;21246;-81
2022/10/03 04:24:29;;;;;;;20.20;3.83;;;12.20;1.00;;;;;;6138119;23;20414;-82
2022/10/03 04:27:21;;;;;;;12.93;3.60;;;12.20;1.00;;;;;;6204610;23;20422;-82
2022/10/03 04:30:02;;;;;;;12.40;3.50;;;12.20;1.00;;;;;;6201673;23;20397;-81
2022/10/03 04:33:04;;;;;;;12.30;4.20;;;12.20;1.00;;;;;;6205863;23;20462;-82
2022/10/03 04:36:22;;;;;;;12.43;3.27;;;12.20;1.00;;;;;;6203842;23;20437;-83
2022/10/03 04:39:01;;;;;;;13.43;3.47;;;12.20;1.00;;;;;;6206323;23;20441;-81
2022/10/03 04:41:45;;;;;;;13.23;3.80;;;12.20;1.00;;;;;;6205073;23;20438;-82
2022/10/03 04:44:34;;;;;;;14.00;3.43;;;12.20;1.00;;;;;;6207287;23;20650;-80
2022/10/03 04:47:11;;;;;;;12.50;3.73;;;12.20;1.00;;;;;;6200483;23;20401;-80
2022/10/03 04:49:44;;;;;;;12.73;3.37;;;12.20;1.00;;;;;;6206603;23;20418;-82
2022/10/03 04:52:21;;;;;;;17.00;4.03;;;12.20;1.00;;;;;;6207141;23;20413;-81
2022/10/03 04:54:59;;;;;;;14.30;3.30;;;12.20;1.00;;;;;;6205020;23;20516;-78
2022/10/03 04:57:41;;;;;;;9.40;3.73;;;12.20;1.00;;;;;;6201835;23;20386;-81
2022/10/03 05:00:24;;;;;;;14.90;4.43;;;12.20;1.00;;;;;;6204327;23;20421;-83
2022/10/03 05:03:03;;;;;;;11.80;3.40;;;12.20;1.00;;;;;;6204982;23;20420;-81
2022/10/03 05:05:49;;;;;;;12.60;4.20;;;12.30;1.00;;;;;;6166327;23;20406;-80
2022/10/03 05:08:32;;;;;;;17.27;4.03;;;12.20;1.00;;;;;;6202720;23;21326;-81
2022/10/03 05:11:22;;;;;;;19.97;4.03;;;12.30;1.00;;;;;;6204351;23;20398;-82
2022/10/03 05:17:42;;;;;;;19.20;5.57;;;12.30;1.00;;;;;;5106218;27;20354;-79
2022/10/03 05:20:40;;;;;;;10.67;3.60;;;12.30;1.00;;;;;;5089982;28;20423;-82
2022/10/03 05:23:26;;;;;;;13.40;3.27;;;12.30;1.00;;;;;;5095358;28;20431;-82
2022/10/03 05:26:22;;;;;;;12.23;3.77;;;12.30;1.00;;;;;;5096420;27;20466;-81
2022/10/03 05:29:01;;;;;;;16.93;4.27;;;12.30;1.00;;;;;;5092883;28;20424;-82
2022/10/03 05:31:51;;;;;;;14.27;4.27;;;12.30;1.00;;;;;;5094481;28;20430;-78
2022/10/03 05:34:35;;;;;;;20.43;3.70;;;12.20;1.00;;;;;;5090245;28;20486;-81
2022/10/03 05:37:33;;;;;;;12.73;3.67;;;12.30;1.00;;;;;;5092195;27;20477;-79
2022/10/03 05:40:07;;;;;;;16.17;3.33;;;12.30;1.00;;;;;;5090143;28;20423;-79
2022/10/03 05:43:02;;;;;;;11.70;4.30;;;12.30;1.00;;;;;;5092015;28;20440;-79
2022/10/03 05:46:04;;;;;;;14.83;3.53;;;12.20;1.00;;;;;;5093423;28;20432;-80
2022/10/03 05:52:33;;;;;;;10.73;3.60;;;12.20;1.00;;;;;;5086895;27;20492;-78
2022/10/03 05:55:32;;;;;;;15.87;3.57;;;12.20;1.00;;;;;;5089613;28;20456;-81
2022/10/03 05:58:53;;;;;;;12.70;3.33;;;12.10;1.00;;;;;;5084213;28;20416;-79
2022/10/03 06:01:58;;;;;;;12.33;3.40;;;12.10;1.00;;;;;;4982536;28;20436;-78
2022/10/03 06:04:53;;;;;;;17.30;3.73;;;12.10;1.00;;;;;;5013505;28;20556;-80
2022/10/03 06:07:42;;;;;;;14.17;3.60;;;12.10;1.00;;;;;;5017763;28;20486;-79
2022/10/03 06:10:44;;;;;;;11.70;2.90;;;12.20;1.00;;;;;;5019769;28;20458;-79
2022/10/03 06:13:32;;;;;;;17.00;3.10;;;12.10;1.00;;;;;;5022762;28;20456;-81
2022/10/03 06:16:40;;;;;;;13.47;3.90;;;12.10;1.00;;;;;;5018274;28;21398;-80
2022/10/03 06:19:44;;;;;;;16.67;3.40;;;12.00;1.00;;;;;;5011903;28;20422;-80
2022/10/03 06:22:51;;;;;;;12.70;4.03;;;12.10;1.00;;;;;;5014287;28;20435;-81
2022/10/03 06:26:11;;;;;;;11.50;3.10;;;12.10;1.00;;;;;;5013752;28;20410;-80
2022/10/03 06:29:15;;;;;;;15.33;3.43;;;12.20;1.00;;;;;;5003082;28;20452;-81
2022/10/03 06:32:14;;;;;;;11.70;3.43;;;12.30;1.00;;;;;;5053079;28;20457;-79
2022/10/03 06:35:12;;;;;;;14.30;3.57;;;12.50;1.00;;;;;;5076102;28;21419;-78
2022/10/03 06:38:21;;;;;;;13.17;3.07;;;12.50;1.00;;;;;;5077829;28;20441;-81
2022/10/03 06:41:24;;;;;;;15.80;3.10;;;12.50;1.00;;;;;;5080030;28;20488;-82
2022/10/03 06:44:13;;;;;;;15.40;3.60;;;12.50;1.00;;;;;;5067702;28;20420;-80
2022/10/03 06:47:10;;;;;;;15.30;3.57;;;12.60;1.00;;;;;;5068818;28;20447;-80
2022/10/03 06:50:25;;;;;;;16.63;3.60;;;12.70;1.00;;;;;;5075363;28;20440;-79
2022/10/03 06:53:30;;;;;;;17.00;3.90;;;12.80;1.00;;;;;;5074844;28;20435;-79
2022/10/03 06:56:37;;;;;;;12.53;2.83;;;12.80;1.00;;;;;;5074892;28;21425;-81
2022/10/03 06:59:44;;;;;;;17.07;3.20;;;12.80;1.00;;;;;;5078041;28;20441;-81
2022/10/03 07:03:03;;;;;;;13.60;3.17;;;12.80;1.00;;;;;;5065463;28;20408;-83
2022/10/03 07:06:05;;;;;;;17.33;3.43;;;12.70;1.00;;;;;;5044502;28;20453;-80
2022/10/03 07:09:13;;;;;;;17.57;4.50;;;12.70;1.00;;;;;;5070723;28;20468;-80
2022/10/03 07:12:21;;;;;;;11.67;3.60;;;12.80;1.00;;;;;;5074804;28;20464;-80
2022/10/03 07:15:22;;;;;;;12.10;3.33;;;12.90;1.00;;;;;;5065690;28;20416;-79
2022/10/03 07:18:10;;;;;;;10.83;3.17;;;13.00;1.00;;;;;;5036051;28;20455;-81
2022/10/03 07:21:26;;;;;;;11.13;2.80;;;13.00;1.00;;;;;;5072489;28;20455;-81
2022/10/03 07:24:12;;;;;;;15.57;3.50;;;13.10;1.00;;;;;;5048770;28;20482;-82
2022/10/03 07:27:03;;;;;;;15.03;4.03;;;13.10;1.00;;;;;;5076570;28;20396;-82
2022/10/03 07:30:11;;;;;;;12.47;3.53;;;13.10;1.00;;;;;;5075052;28;20452;-81
2022/10/03 07:33:12;;;;;;;11.63;3.17;;;13.20;1.00;;;;;;5058064;28;20425;-81
2022/10/03 07:39:38;;;;;;;11.40;2.87;;;13.30;1.00;;;;;;5074967;28;20443;-81
2022/10/03 07:42:35;;;;;;;13.07;3.10;;;13.40;1.00;;;;;;5067449;28;20487;-79
2022/10/03 07:45:53;;;;;;;12.87;2.83;;;13.40;1.00;;;;;;5070903;28;20435;-79
2022/10/03 07:49:02;;;;;;;14.40;3.43;;;13.40;1.00;;;;;;5075406;28;20522;-81
2022/10/03 07:51:44;;;;;;;19.13;6.00;;;13.70;1.00;;;;;;5072941;28;20471;-81
2022/10/03 07:54:40;;;;;;;13.20;3.30;;;13.90;1.00;;;;;;5073843;28;20476;-80
2022/10/03 07:57:44;;;;;;;15.30;4.07;;;14.10;1.00;;;;;;5075457;28;20570;-81
2022/10/03 08:00:29;;;;;;;14.27;3.40;;;14.00;1.00;;;;;;5050132;28;20542;-80
2022/10/03 08:04:04;;;;;;;11.90;3.37;;;14.00;1.00;;;;;;5071668;28;20464;-81
2022/10/03 08:06:44;;;;;;;14.20;3.60;;;13.90;1.00;;;;;;4930166;28;21404;-80
2022/10/03 08:09:43;;;;;;;14.00;3.47;;;13.80;1.00;;;;;;4987920;28;20427;-80
2022/10/03 08:12:52;;;;;;;14.67;3.13;;;13.90;1.00;;;;;;5073301;28;20440;-81
2022/10/03 08:15:35;;;;;;;13.87;3.00;;;14.00;1.00;;;;;;5070705;28;20404;-81
2022/10/03 08:18:43;;;;;;;14.50;3.80;;;14.00;1.00;;;;;;5072314;28;20554;-80
2022/10/03 08:21:21;;;;;;;13.23;3.00;;;13.90;1.00;;;;;;5072670;28;20443;-78
2022/10/03 08:24:34;;;;;;;12.03;3.70;;;14.10;1.00;;;;;;5070485;28;20428;-80
2022/10/03 08:27:21;;;;;;;20.13;4.00;;;14.20;1.00;;;;;;5063649;28;20442;-80
2022/10/03 08:30:25;;;;;;;15.17;3.83;;;14.20;1.00;;;;;;5066045;28;20456;-82
2022/10/03 08:33:24;;;;;;;12.57;3.70;;;14.20;1.00;;;;;;5038598;28;20484;-81
2022/10/03 08:36:21;;;;;;;15.07;3.60;;;14.20;1.00;;;;;;4968038;28;20425;-79
2022/10/03 08:39:14;;;;;;;14.23;3.40;;;14.30;1.00;;;;;;5065809;28;20416;-82
2022/10/03 08:42:27;;;;;;;10.60;3.03;;;14.40;1.00;;;;;;5068938;28;20462;-82
2022/10/03 08:45:22;;;;;;;12.10;3.60;;;14.50;1.00;;;;;;5071923;28;20848;-80
2022/10/03 08:48:45;;;;;;;11.50;3.70;;;14.50;1.00;;;;;;5044691;28;20483;-81
2022/10/03 08:51:49;;;;;;;12.47;3.27;;;14.70;1.00;;;;;;5064305;28;20881;-81
2022/10/03 08:54:49;;;;;;;18.23;4.33;;;14.80;1.00;;;;;;5065678;28;20968;-80
2022/10/03 08:57:51;;;;;;;15.87;3.60;;;14.80;1.00;;;;;;5062828;28;20455;-80
2022/10/03 09:00:26;;;;;;;10.37;3.50;;;14.70;1.00;;;;;;5057691;28;20462;-81
2022/10/03 09:03:23;;;;;;;11.70;3.97;;;14.70;1.00;;;;;;5065215;28;20468;-80
2022/10/03 09:06:45;;;;;;;13.83;4.33;;;14.70;1.00;;;;;;5058824;28;20510;-80
2022/10/03 09:09:54;;;;;;;11.33;3.07;;;15.10;1.00;;;;;;5070237;28;20460;-80
2022/10/03 09:13:04;;;;;;;8.40;2.60;;;15.70;1.00;;;;;;5039060;28;20590;-82
2022/10/03 09:16:12;;;;;;;13.77;3.47;;;16.70;1.00;;;;;;5022474;28;20607;-81
2022/10/03 09:18:52;;;;;;;13.97;3.00;;;16.50;1.00;;;;;;5050066;28;20462;-81
2022/10/03 09:22:00;;;;;;;12.17;3.10;;;16.10;1.00;;;;;;5064298;28;20975;-80
2022/10/03 09:25:06;;;;;;;13.13;3.00;;;16.20;1.00;;;;;;5040895;28;20421;-80
2022/10/03 09:28:13;;;;;;;14.03;3.67;;;16.40;1.00;;;;;;5065442;28;20462;-81
2022/10/03 09:30:52;;;;;;;11.50;2.97;;;16.40;1.00;;;;;;5061013;28;20474;-78
2022/10/03 09:33:58;;;;;;;9.83;2.90;;;16.30;1.00;;;;;;5065919;28;20463;-78
2022/10/03 09:37:00;;;;;;;11.50;3.30;;;16.10;1.00;;;;;;5065447;28;20416;-79
2022/10/03 09:39:59;;;;;;;14.03;3.23;;;16.30;1.00;;;;;;5066464;28;20466;-80
2022/10/03 09:42:58;;;;;;;12.83;2.90;;;16.50;1.00;;;;;;5044619;28;20468;-81
2022/10/03 09:45:40;;;;;;;11.30;3.27;;;17.10;1.00;;;;;;5060033;28;20586;-82
2022/10/03 09:48:23;;;;;;;15.40;3.00;;;17.60;1.00;;;;;;5064981;28;20526;-79
2022/10/03 09:51:17;;;;;;;11.80;3.10;;;17.70;1.00;;;;;;5062613;28;20443;-79
2022/10/03 09:54:07;;;;;;;11.50;3.27;;;17.60;1.00;;;;;;5056837;28;20478;-81
2022/10/03 09:57:06;;;;;;;12.67;3.27;;;17.30;1.00;;;;;;5064041;28;20456;-81
2022/10/03 10:00:02;;;;;;;13.30;2.83;;;17.20;1.00;;;;;;5066791;28;20893;-82
2022/10/03 10:03:16;;;;;;;13.10;3.83;;;17.50;1.00;;;;;;5063043;28;20459;-82
2022/10/03 10:06:11;;;;;;;13.40;2.73;;;17.50;1.00;;;;;;5069864;28;20485;-83
2022/10/03 10:09:22;;;;;;;13.40;3.50;;;17.40;1.00;;;;;;5074187;28;21147;-83
2022/10/03 10:12:40;;;;;;;11.50;3.97;;;17.70;1.00;;;;;;5067754;28;20820;-83
2022/10/03 10:15:27;;;;;;;15.23;3.60;;;17.50;1.00;;;;;;5011182;28;20478;-81
2022/10/03 10:18:28;;;;;;;9.93;3.30;;;17.00;1.00;;;;;;5063212;28;20462;-82
2022/10/03 10:21:23;;;;;;;13.97;3.40;;;16.70;1.00;;;;;;5064264;28;20420;-82
2022/10/03 10:24:00;;;;;;;18.43;3.77;;;17.10;1.00;;;;;;5065096;28;20455;-83
2022/10/03 10:27:08;;;;;;;10.90;3.27;;;17.50;1.00;;;;;;5070190;28;20499;-82
2022/10/03 10:30:03;;;;;;;13.77;3.47;;;18.60;1.00;;;;;;5069688;28;20451;-83
2022/10/03 10:33:07;;;;;;;12.83;3.33;;;18.80;1.00;;;;;;5072274;28;20463;-82
2022/10/03 10:36:06;;;;;;;10.80;2.50;;;19.00;1.00;;;;;;5067084;28;20514;-82
2022/10/03 10:39:08;;;;;;;11.87;3.30;;;19.70;1.00;;;;;;5059009;28;21260;-81
2022/10/03 10:42:03;;;;;;;13.33;2.97;;;19.80;1.00;;;;;;5046288;28;20434;-84
2022/10/03 10:45:03;;;;;;;9.57;2.47;;;21.30;1.00;;;;;;5054579;28;20439;-83
2022/10/03 10:48:09;;;;;;;7.40;2.70;;;22.90;1.00;;;;;;4997801;28;20468;-77
2022/10/03 10:51:24;;;;;;;11.23;3.17;;;23.80;1.00;;;;;;5061934;28;20474;-78
2022/10/03 10:54:25;;;;;;;9.13;2.50;;;22.40;1.00;;;;;;5019906;28;20470;-78
2022/10/03 10:57:21;;;;;;;7.00;2.07;;;20.80;1.00;;;;;;5064546;28;20530;-79
2022/10/03 11:00:14;;;;;;;6.87;2.40;;;22.50;1.00;;;;;;5052464;28;20474;-77
2022/10/03 11:03:31;;;;;;;11.57;2.90;;;23.20;1.00;;;;;;5053322;28;20408;-79
2022/10/03 11:06:44;;;;;;;6.17;2.47;;;23.70;1.00;;;;;;5059699;28;20459;-78
2022/10/03 11:09:49;;;;;;;7.00;2.70;;;25.20;1.00;;;;;;5067910;28;20534;-77
2022/10/03 11:13:05;;;;;;;7.63;2.77;;;24.30;1.00;;;;;;5063861;28;20469;-78
2022/10/03 11:16:08;;;;;;;7.27;2.93;;;22.80;1.00;;;;;;5064081;28;20459;-77
2022/10/03 11:19:13;;;;;;;9.93;2.47;;;20.60;1.00;;;;;;5055090;28;20490;-83
2022/10/03 11:22:09;;;;;;;8.77;2.47;;;19.70;1.00;;;;;;5075326;28;20543;-80
2022/10/03 11:25:15;;;;;;;9.50;2.80;;;19.00;1.00;;;;;;5066642;28;20972;-78
2022/10/03 11:28:28;;;;;;;7.63;2.33;;;18.50;1.00;;;;;;5053362;28;20448;-80
2022/10/03 11:31:49;;;;;;;8.60;2.27;;;18.10;1.00;;;;;;5072492;28;20442;-78
2022/10/03 11:35:29;;;;;;;8.23;2.50;;;18.10;1.00;;;;;;5072259;27;20416;-83
2022/10/03 11:38:11;;;;;;;8.23;2.43;;;18.10;1.00;;;;;;4988813;28;20432;-82
2022/10/03 11:40:55;;;;;;;8.27;2.67;;;18.30;1.00;;;;;;4978581;28;20527;-79
2022/10/03 11:44:03;;;;;;;11.37;2.73;;;18.20;1.00;;;;;;5065294;28;20451;-80
2022/10/03 11:46:49;;;;;;;7.47;2.30;;;17.80;1.00;;;;;;5068599;28;20595;-80
2022/10/03 11:49:50;;;;;;;10.53;3.07;;;17.60;1.00;;;;;;5081993;28;20423;-80
2022/10/03 11:52:31;;;;;;;8.20;2.20;;;17.30;1.00;;;;;;5035901;28;20423;-79
2022/10/03 11:55:35;;;;;;;10.97;2.67;;;17.10;1.00;;;;;;5068972;28;20463;-78
2022/10/03 11:58:32;;;;;;;7.07;2.50;;;17.50;1.00;;;;;;5062459;28;20434;-82
2022/10/03 12:01:26;;;;;;;7.63;2.50;;;19.50;1.00;;;;;;5071549;28;20448;-83
2022/10/03 12:04:08;;;;;;;7.77;2.20;;;19.30;1.00;;;;;;5065938;28;20436;-82
2022/10/03 12:10:13;;;;;;;8.97;2.97;;;18.30;1.00;;;;;;5069173;28;20503;-79
2022/10/03 12:12:51;;;;;;;10.13;2.30;;;18.90;1.00;;;;;;5072210;28;20447;-84
2022/10/03 12:15:30;;;;;;;5.53;2.20;;;20.80;1.00;;;;;;5066941;28;20463;-79
2022/10/03 12:18:10;;;;;;;7.80;2.87;;;21.80;1.00;;;;;;5073028;28;20506;-78
2022/10/03 12:21:09;;;;;;;9.10;2.40;;;21.10;1.00;;;;;;5072495;28;20575;-83
2022/10/03 12:24:08;;;;;;;11.27;2.80;;;20.30;1.00;;;;;;5066474;28;20423;-79
2022/10/03 12:26:59;;;;;;;8.20;2.10;;;19.60;1.00;;;;;;5068785;28;21236;-79
2022/10/03 12:29:31;;;;;;;12.20;3.30;;;20.20;1.00;;;;;;5071592;28;20637;-76
2022/10/03 12:32:25;;;;;;;8.97;2.30;;;20.50;1.00;;;;;;5071322;28;20459;-82
2022/10/03 12:35:20;;;;;;;7.27;2.40;;;20.70;1.00;;;;;;5057712;28;20447;-82
2022/10/03 12:38:26;;;;;;;6.00;2.47;;;20.70;1.00;;;;;;5051847;28;20466;-81
2022/10/03 12:41:16;;;;;;;6.27;2.33;;;20.80;1.00;;;;;;5067761;28;20496;-84
2022/10/03 12:44:07;;;;;;;12.03;2.63;;;20.70;1.00;;;;;;5059193;28;20459;-83
2022/10/03 12:46:46;;;;;;;7.23;3.03;;;20.50;1.00;;;;;;5068677;28;20422;-85
2022/10/03 12:49:19;;;;;;;7.90;2.23;;;20.40;1.00;;;;;;5074714;28;20435;-80
2022/10/03 12:52:00;;;;;;;7.47;2.13;;;20.10;1.00;;;;;;5063775;28;20565;-81
2022/10/03 12:54:44;;;;;;;6.43;2.37;;;19.90;1.00;;;;;;5068052;28;21027;-81
2022/10/03 12:57:37;;;;;;;7.37;2.20;;;19.50;1.00;;;;;;5069779;28;21367;-80
2022/10/03 13:00:28;;;;;;;7.63;2.50;;;19.20;1.00;;;;;;5056616;28;20461;-81
2022/10/03 13:03:29;;;;;;;6.90;2.43;;;19.40;1.00;;;;;;5070522;28;20443;-81
2022/10/03 13:06:46;;;;;;;6.73;2.13;;;19.30;1.00;;;;;;5076495;28;20483;-80
2022/10/03 13:09:37;;;;;;;6.77;1.90;;;19.10;1.00;;;;;;5066938;28;20465;-80
2022/10/03 13:12:39;;;;;;;7.80;2.17;;;18.80;1.00;;;;;;5068818;28;20503;-82
2022/10/03 13:15:46;;;;;;;12.97;3.07;;;18.50;1.00;;;;;;5059280;28;20546;-80
2022/10/03 13:18:40;;;;;;;5.67;2.07;;;18.80;1.00;;;;;;5080080;28;20420;-77
2022/10/03 13:21:16;;;;;;;17.03;3.00;;;18.70;1.00;;;;;;5073758;28;20513;-76
2022/10/03 13:23:57;;;;;;;5.10;1.73;;;18.40;1.00;;;;;;5055603;28;20454;-81
2022/10/03 13:26:48;;;;;;;6.03;1.90;;;18.30;1.00;;;;;;5075721;28;20481;-82
2022/10/03 13:29:29;;;;;;;8.47;2.10;;;18.20;1.00;;;;;;5077396;28;20439;-79
2022/10/03 13:32:19;;;;;;;6.63;1.90;;;18.10;1.00;;;;;;5063032;28;20424;-78
2022/10/03 13:38:18;;;;;;;6.90;1.90;;;18.20;1.00;;;;;;5065041;28;20429;-77
2022/10/03 13:40:59;;;;;;;7.17;1.93;;;18.10;1.00;;;;;;5079110;28;20444;-75
2022/10/03 13:43:34;;;;;;;10.57;1.97;;;17.90;1.00;;;;;;5074498;28;20466;-76
2022/10/03 13:46:08;;;;;;;5.40;1.87;;;17.90;1.00;;;;;;5074576;28;20465;-78
2022/10/03 13:48:40;;;;;;;5.07;2.17;;;18.00;1.00;;;;;;5065958;28;20448;-77
2022/10/03 13:51:28;;;;;;;7.20;2.30;;;18.10;1.00;;;;;;5073606;28;20447;-76
2022/10/03 13:54:03;;;;;;;7.33;1.97;;;18.10;1.00;;;;;;5074797;28;20443;-76
2022/10/03 13:56:48;;;;;;;6.83;1.97;;;18.00;1.00;;;;;;5073688;28;20446;-76
2022/10/03 13:59:37;;;;;;;8.60;2.17;;;17.60;1.00;;;;;;5069543;28;20459;-78
2022/10/03 14:02:18;;;;;;;8.50;2.50;;;17.50;1.00;;;;;;5077534;28;20431;-77
2022/10/03 14:05:17;;;;;;;8.63;2.03;;;17.60;1.00;;;;;;5064858;28;20413;-76
2022/10/03 14:08:08;;;;;;;5.37;1.90;;;17.60;1.00;;;;;;5067212;28;20411;-80
2022/10/03 14:11:18;;;;;;;5.73;1.97;;;17.50;1.00;;;;;;5068010;28;20471;-78
2022/10/03 14:14:33;;;;;;;6.27;2.30;;;17.40;1.00;;;;;;5074719;28;20420;-76
2022/10/03 14:17:12;;;;;;;9.67;1.80;;;17.40;1.00;;;;;;5074245;28;20542;-79
2022/10/03 14:20:06;;;;;;;7.07;2.10;;;17.40;1.00;;;;;;5070229;28;20467;-77
2022/10/03 14:23:04;;;;;;;10.57;2.30;;;17.40;1.00;;;;;;5062774;28;20460;-77
2022/10/03 14:25:40;;;;;;;6.00;2.23;;;17.30;1.00;;;;;;5072140;28;20505;-75
2022/10/03 14:28:15;;;;;;;8.60;2.37;;;17.50;1.00;;;;;;5074772;28;20486;-75
2022/10/03 14:31:00;;;;;;;10.80;2.40;;;17.60;1.00;;;;;;5066283;28;20576;-76
2022/10/03 14:33:42;;;;;;;8.87;2.17;;;17.50;1.00;;;;;;5080716;28;20518;-77
2022/10/03 14:36:28;;;;;;;8.57;2.13;;;17.30;1.00;;;;;;5070866;28;21171;-77
2022/10/03 14:39:31;;;;;;;7.10;2.33;;;17.20;1.00;;;;;;5070872;28;20481;-77
2022/10/03 14:42:20;;;;;;;7.83;2.13;;;17.10;1.00;;;;;;5024236;28;20408;-76
2022/10/03 14:44:59;;;;;;;6.63;1.93;;;16.90;1.00;;;;;;5063393;28;20497;-78
2022/10/03 14:47:40;;;;;;;10.50;2.57;;;16.80;1.00;;;;;;5073330;28;20487;-79
2022/10/03 14:50:20;;;;;;;9.03;2.57;;;17.00;1.00;;;;;;5070106;28;20462;-80
2022/10/03 14:53:01;;;;;;;8.67;2.50;;;17.10;1.00;;;;;;5065073;28;20409;-79
2022/10/03 14:55:33;;;;;;;5.63;1.93;;;17.10;1.00;;;;;;5056565;28;20490;-75
2022/10/03 14:58:04;;;;;;;6.80;2.50;;;17.20;1.00;;;;;;5069019;28;20478;-76
2022/10/03 15:00:42;;;;;;;8.63;2.70;;;17.20;1.00;;;;;;5061994;28;20581;-77
2022/10/03 15:03:32;;;;;;;6.80;2.43;;;17.30;1.00;;;;;;5062879;28;20541;-78
2022/10/03 15:06:02;;;;;;;6.60;2.50;;;17.40;1.00;;;;;;5061156;28;20520;-82
2022/10/03 15:08:49;;;;;;;6.73;2.60;;;17.40;1.00;;;;;;5064612;28;20480;-82
2022/10/03 15:11:25;;;;;;;7.80;3.10;;;17.40;1.00;;;;;;5054818;28;20455;-82
2022/10/03 15:14:01;;;;;;;9.83;2.90;;;17.30;1.00;;;;;;5065183;28;20423;-82
2022/10/03 15:16:33;;;;;;;9.47;2.40;;;17.30;1.00;;;;;;5064745;28;20439;-82
2022/10/03 15:19:06;;;;;;;9.53;2.53;;;17.20;1.00;;;;;;5064064;28;20439;-82
2022/10/03 15:21:34;;;;;;;6.83;2.23;;;17.20;1.00;;;;;;5068924;28;20428;-82
2022/10/03 15:24:11;;;;;;;6.00;2.60;;;17.20;1.00;;;;;;5066539;28;21003;-82
2022/10/03 15:26:49;;;;;;;10.00;2.57;;;17.10;1.00;;;;;;5066807;28;20470;-81
2022/10/03 15:29:19;;;;;;;6.93;2.53;;;17.00;1.00;;;;;;5045815;28;20496;-81
2022/10/03 15:31:48;;;;;;;7.37;2.80;;;17.10;1.00;;;;;;5065568;28;20424;-81
2022/10/03 15:34:19;;;;;;;7.33;2.30;;;17.00;1.00;;;;;;5066373;27;20567;-81